Time;durP1;ratioP1;P1;durP2;ratioP2;P2;SDS_P1;SDS_P2;PMS_P1;PMS_P2;Temp;Humidity;BMP_temperature;BMP_pressure;BME280_temperature;BME280_humidity;BME280_pressure;Samples;Min_cycle;Max_cycle;Signal;HPM_P1;HPM_P2
2024/02/06 00:02:23;;;;;;;10.35;4.32;;;;;;;9.19;100.00;100775.69;6275612;28;20131;-80
2024/02/06 00:05:25;;;;;;;14.88;4.88;;;;;;;9.16;100.00;100763.56;6269674;28;20128;-79
2024/02/06 00:08:27;;;;;;;9.45;4.85;;;;;;;9.20;100.00;100761.66;6273056;28;20065;-79
2024/02/06 00:11:29;;;;;;;13.63;5.30;;;;;;;9.24;100.00;100756.19;6275569;28;20052;-78
2024/02/06 00:14:31;;;;;;;14.18;5.30;;;;;;;9.31;100.00;100761.97;6275004;28;20453;-80
2024/02/06 00:17:32;;;;;;;11.93;5.35;;;;;;;9.26;100.00;100759.56;6274805;28;20037;-78
2024/02/06 00:20:33;;;;;;;8.80;4.60;;;;;;;9.34;100.00;100749.56;6267145;28;20326;-79
2024/02/06 00:23:35;;;;;;;15.23;5.07;;;;;;;9.33;100.00;100734.78;6274541;28;20047;-78
2024/02/06 00:26:37;;;;;;;10.65;4.68;;;;;;;9.39;100.00;100738.88;6266415;28;20372;-79
2024/02/06 00:29:39;;;;;;;15.15;4.80;;;;;;;9.48;100.00;100732.31;6275305;28;20448;-79
2024/02/06 00:32:40;;;;;;;14.10;4.72;;;;;;;9.45;100.00;100745.56;6275072;28;20056;-79
2024/02/06 00:35:41;;;;;;;9.93;4.45;;;;;;;9.46;100.00;100739.44;6259739;28;20049;-79
2024/02/06 00:38:43;;;;;;;8.85;4.43;;;;;;;9.53;100.00;100725.91;6264576;28;20052;-80
2024/02/06 00:41:45;;;;;;;7.53;4.35;;;;;;;9.52;100.00;100734.72;6275343;28;20076;-79
2024/02/06 00:44:47;;;;;;;9.52;4.38;;;;;;;9.50;100.00;100733.97;6274509;28;20141;-79
2024/02/06 00:47:49;;;;;;;10.35;4.50;;;;;;;9.46;100.00;100719.28;6274963;28;20056;-79
2024/02/06 00:50:50;;;;;;;7.28;4.50;;;;;;;9.50;100.00;100722.63;6275174;28;20491;-79
2024/02/06 00:53:52;;;;;;;10.68;4.22;;;;;;;9.46;100.00;100723.69;6274799;28;20056;-79
2024/02/06 00:56:54;;;;;;;8.73;4.65;;;;;;;9.55;100.00;100712.75;6266096;28;20045;-79
2024/02/06 00:59:56;;;;;;;15.07;4.72;;;;;;;9.49;100.00;100707.78;6275150;28;20059;-80
2024/02/06 01:02:57;;;;;;;9.93;4.93;;;;;;;9.55;100.00;100703.09;6274926;28;20052;-79
2024/02/06 01:05:58;;;;;;;8.32;4.25;;;;;;;9.60;100.00;100705.50;6274802;28;20372;-79
2024/02/06 01:09:00;;;;;;;7.72;4.15;;;;;;;9.65;100.00;100704.31;6274422;28;20049;-78
2024/02/06 01:12:03;;;;;;;10.18;4.78;;;;;;;9.58;100.00;100696.84;6275153;28;20459;-80
2024/02/06 01:15:06;;;;;;;8.93;4.25;;;;;;;9.57;100.00;100689.91;6275569;28;20056;-79
2024/02/06 01:18:07;;;;;;;10.90;4.85;;;;;;;9.55;100.00;100689.13;6279016;28;20437;-79
2024/02/06 01:21:09;;;;;;;11.90;3.70;;;;;;;9.51;100.00;100684.97;6279896;28;20060;-77
2024/02/06 01:24:10;;;;;;;10.55;5.00;;;;;;;9.62;100.00;100669.53;6279159;28;20433;-77
2024/02/06 01:27:13;;;;;;;7.70;4.63;;;;;;;9.64;100.00;100679.03;6278764;28;20045;-78
2024/02/06 01:30:15;;;;;;;9.75;3.95;;;;;;;9.60;100.00;100682.72;6279011;28;20053;-79
2024/02/06 01:33:16;;;;;;;7.70;3.67;;;;;;;9.69;100.00;100667.44;6279231;28;20056;-78
2024/02/06 01:36:19;;;;;;;11.05;4.60;;;;;;;9.82;100.00;100663.28;6278648;28;20052;-78
2024/02/06 01:39:20;;;;;;;10.00;4.20;;;;;;;9.80;100.00;100665.09;6270309;28;20440;-78
2024/02/06 01:42:23;;;;;;;8.13;4.40;;;;;;;9.74;100.00;100668.06;6278865;28;20065;-77
2024/02/06 01:45:24;;;;;;;8.45;4.22;;;;;;;9.73;100.00;100661.13;6278642;28;20049;-78
2024/02/06 01:48:25;;;;;;;9.77;3.90;;;;;;;9.78;100.00;100659.94;6278475;28;20151;-77
2024/02/06 01:51:31;;;;;;;5.18;3.53;;;;;;;9.81;100.00;100666.81;6278626;28;20060;-77
2024/02/06 01:54:32;;;;;;;8.60;3.95;;;;;;;9.74;100.00;100660.19;6278351;28;20057;-76
2024/02/06 01:57:36;;;;;;;11.32;4.47;;;;;;;9.77;100.00;100657.41;6262776;28;20037;-76
2024/02/06 02:00:39;;;;;;;11.57;4.55;;;;;;;9.64;100.00;100651.94;6277217;28;20056;-77
2024/02/06 02:03:40;;;;;;;7.13;4.68;;;;;;;9.70;100.00;100651.63;6269672;28;20049;-78
2024/02/06 02:06:42;;;;;;;14.07;4.80;;;;;;;9.62;100.00;100640.66;6277461;28;20072;-76
2024/02/06 02:09:43;;;;;;;16.02;4.25;;;;;;;9.78;100.00;100649.44;6269657;28;20364;-78
2024/02/06 02:12:46;;;;;;;13.35;4.85;;;;;;;9.79;100.00;100656.38;6278553;28;20049;-78
2024/02/06 02:15:47;;;;;;;14.02;4.28;;;;;;;9.76;100.00;100635.53;6278260;28;20045;-78
2024/02/06 02:18:48;;;;;;;9.25;4.05;;;;;;;9.84;100.00;100638.63;6278027;28;20041;-79
2024/02/06 02:21:51;;;;;;;13.98;4.45;;;;;;;9.80;100.00;100628.38;6278137;28;20072;-77
2024/02/06 02:24:52;;;;;;;10.80;4.70;;;;;;;9.72;100.00;100623.53;6277322;28;20052;-78
2024/02/06 02:27:54;;;;;;;11.00;4.43;;;;;;;9.79;100.00;100637.19;6276278;28;20345;-78
2024/02/06 02:30:56;;;;;;;10.10;5.15;;;;;;;9.83;100.00;100617.72;6276589;28;20056;-78
2024/02/06 02:33:58;;;;;;;15.50;4.38;;;;;;;9.85;100.00;100613.22;6271895;28;20048;-78
2024/02/06 02:37:00;;;;;;;8.43;4.35;;;;;;;9.82;100.00;100610.78;6272750;28;20049;-79
2024/02/06 02:40:02;;;;;;;13.57;3.97;;;;;;;9.71;100.00;100608.69;6273088;28;20041;-78
2024/02/06 02:43:03;;;;;;;18.60;4.75;;;;;;;9.74;100.00;100599.81;6276366;28;20049;-79
2024/02/06 02:46:05;;;;;;;7.82;3.85;;;;;;;9.87;100.00;100590.38;6276251;28;20044;-78
2024/02/06 02:49:06;;;;;;;12.77;4.28;;;;;;;9.82;100.00;100581.91;6275102;28;20048;-78
2024/02/06 02:52:08;;;;;;;11.85;4.57;;;;;;;9.85;100.00;100597.47;6276754;28;20045;-76
2024/02/06 02:55:10;;;;;;;12.80;4.65;;;;;;;9.79;100.00;100587.31;6276252;28;20051;-78
2024/02/06 02:58:11;;;;;;;9.68;3.97;;;;;;;9.84;100.00;100578.25;6276180;28;20440;-77
2024/02/06 03:01:13;;;;;;;9.93;4.05;;;;;;;9.93;100.00;100582.19;6275965;28;20041;-76
2024/02/06 03:04:14;;;;;;;11.95;4.43;;;;;;;9.94;100.00;100572.53;6276043;28;20357;-78
2024/02/06 03:07:17;;;;;;;8.35;4.05;;;;;;;9.93;100.00;100581.34;6272955;28;20045;-79
2024/02/06 03:10:18;;;;;;;8.55;3.60;;;;;;;10.05;100.00;100567.56;6276574;28;20452;-80
2024/02/06 03:13:19;;;;;;;13.35;4.10;;;;;;;9.97;100.00;100561.88;6276343;28;20361;-80
2024/02/06 03:16:20;;;;;;;9.13;4.25;;;;;;;9.88;100.00;100558.78;6276502;28;20155;-79
2024/02/06 03:19:22;;;;;;;8.23;4.30;;;;;;;10.00;100.00;100554.69;6276317;28;20048;-79
2024/02/06 03:22:29;;;;;;;7.03;3.67;;;;;;;9.87;100.00;100548.38;6276460;28;20045;-80
2024/02/06 03:25:30;;;;;;;11.23;4.43;;;;;;;9.76;100.00;100555.97;6274202;28;20048;-80
2024/02/06 03:28:31;;;;;;;10.77;4.60;;;;;;;9.78;100.00;100557.59;6252958;28;20331;-78
2024/02/06 03:31:33;;;;;;;8.75;4.78;;;;;;;9.79;100.00;100548.78;6251816;28;20439;-80
2024/02/06 03:34:34;;;;;;;13.65;4.85;;;;;;;9.85;100.00;100556.31;6251325;28;20046;-79
2024/02/06 03:37:37;;;;;;;13.77;4.78;;;;;;;9.79;100.00;100543.53;6258751;28;20041;-80
2024/02/06 03:40:38;;;;;;;10.70;4.30;;;;;;;9.69;100.00;100542.34;6267954;28;20053;-78
2024/02/06 03:43:40;;;;;;;7.85;4.03;;;;;;;9.65;100.00;100548.69;6275715;28;20049;-75
2024/02/06 03:46:41;;;;;;;8.07;3.97;;;;;;;9.83;100.00;100534.56;6275520;28;20055;-78
2024/02/06 03:49:42;;;;;;;16.13;5.18;;;;;;;9.76;100.00;100538.44;6275878;28;20330;-79
2024/02/06 03:52:45;;;;;;;10.73;4.50;;;;;;;9.73;100.00;100536.00;6276004;28;20052;-80
2024/02/06 03:55:46;;;;;;;9.70;4.45;;;;;;;9.66;100.00;100539.88;6275386;28;20052;-78
2024/02/06 03:58:47;;;;;;;12.10;4.90;;;;;;;9.71;100.00;100529.97;6272753;28;20041;-81
2024/02/06 04:01:49;;;;;;;13.32;5.55;;;;;;;9.71;100.00;100526.50;6276856;28;20334;-80
2024/02/06 04:04:50;;;;;;;12.50;5.18;;;;;;;9.83;100.00;100520.63;6275361;28;20056;-81
2024/02/06 04:07:53;;;;;;;9.45;4.45;;;;;;;9.79;100.00;100521.69;6274732;28;20048;-81
2024/02/06 04:10:56;;;;;;;17.58;4.32;;;;;;;9.77;100.00;100531.44;6275855;28;20044;-78
2024/02/06 04:13:57;;;;;;;11.32;4.63;;;;;;;9.75;100.00;100528.03;6274842;28;20048;-78
2024/02/06 04:16:58;;;;;;;14.95;5.45;;;;;;;9.64;100.00;100539.13;6275094;28;20087;-78
2024/02/06 04:20:00;;;;;;;10.65;4.80;;;;;;;9.81;100.00;100531.19;6275396;28;20437;-80
2024/02/06 04:23:02;;;;;;;10.52;4.72;;;;;;;9.76;100.00;100514.81;6275254;28;20057;-78
2024/02/06 04:26:05;;;;;;;10.57;5.47;;;;;;;9.66;100.00;100532.84;6275250;28;20354;-78
2024/02/06 04:29:06;;;;;;;12.90;4.68;;;;;;;9.69;100.00;100513.47;6274654;28;20041;-79
2024/02/06 04:32:08;;;;;;;12.07;5.05;;;;;;;9.66;100.00;100511.00;6275439;28;20460;-77
2024/02/06 04:35:09;;;;;;;11.80;5.15;;;;;;;9.70;100.00;100512.53;6272772;28;20065;-77
2024/02/06 04:38:13;;;;;;;11.18;4.45;;;;;;;9.62;100.00;100512.09;6258213;28;20048;-79
2024/02/06 04:41:15;;;;;;;16.33;5.35;;;;;;;9.63;100.00;100490.19;6270494;28;20045;-80
2024/02/06 04:44:16;;;;;;;11.40;4.75;;;;;;;9.55;100.00;100511.59;6270406;28;20049;-78
2024/02/06 04:47:18;;;;;;;13.98;4.90;;;;;;;9.68;100.00;100498.66;6266275;28;20041;-79
2024/02/06 04:50:19;;;;;;;9.95;5.45;;;;;;;9.61;100.00;100502.53;6269686;28;20060;-78
2024/02/06 04:53:22;;;;;;;11.18;5.13;;;;;;;9.62;100.00;100498.97;6280134;28;20053;-79
2024/02/06 04:56:24;;;;;;;19.95;5.72;;;;;;;9.62;100.00;100489.31;6271814;28;20049;-80
2024/02/06 04:59:26;;;;;;;10.38;4.78;;;;;;;9.61;100.00;100503.38;6279558;28;20056;-77
2024/02/06 05:02:27;;;;;;;8.10;5.20;;;;;;;9.54;100.00;100494.16;6280124;28;20049;-78
2024/02/06 05:05:28;;;;;;;12.95;5.30;;;;;;;9.62;100.00;100478.84;6279670;28;20044;-78
2024/02/06 05:08:31;;;;;;;8.50;5.22;;;;;;;9.46;100.00;100480.59;6273607;28;20041;-79
2024/02/06 05:11:32;;;;;;;19.65;5.25;;;;;;;9.50;100.00;100499.66;6277434;28;20432;-78
2024/02/06 05:14:34;;;;;;;11.10;5.03;;;;;;;9.42;100.00;100472.97;6279467;28;20048;-81
2024/02/06 05:17:35;;;;;;;12.68;5.50;;;;;;;9.43;100.00;100474.66;6279281;28;20636;-78
2024/02/06 05:20:36;;;;;;;9.07;5.80;;;;;;;9.60;100.00;100469.38;6279480;28;20139;-81
2024/02/06 05:23:39;;;;;;;14.55;5.10;;;;;;;9.32;100.00;100459.50;6279439;28;20057;-80
2024/02/06 05:26:40;;;;;;;14.70;5.53;;;;;;;9.40;100.00;100467.78;6278834;28;20063;-79
2024/02/06 05:29:42;;;;;;;10.80;4.95;;;;;;;9.46;100.00;100470.09;6279462;28;20052;-79
2024/02/06 05:32:43;;;;;;;9.95;5.82;;;;;;;9.50;100.00;100461.16;6279364;28;20055;-78
2024/02/06 05:35:45;;;;;;;9.30;4.65;;;;;;;9.43;100.00;100454.53;6271104;28;20045;-79
2024/02/06 05:38:48;;;;;;;8.63;4.70;;;;;;;9.47;100.00;100456.06;6278073;28;20119;-78
2024/02/06 05:41:49;;;;;;;11.07;5.28;;;;;;;9.47;100.00;100452.59;6270516;28;20468;-79
2024/02/06 05:44:50;;;;;;;9.60;5.13;;;;;;;9.51;100.00;100447.09;6278673;28;20056;-78
2024/02/06 05:47:53;;;;;;;9.25;5.05;;;;;;;9.50;100.00;100445.41;6278256;28;20329;-78
2024/02/06 05:50:54;;;;;;;13.35;5.25;;;;;;;9.55;100.00;100442.53;6278845;28;20055;-78
2024/02/06 05:53:57;;;;;;;9.45;5.65;;;;;;;9.47;100.00;100427.22;6278569;28;20052;-79
2024/02/06 05:56:58;;;;;;;10.63;4.60;;;;;;;9.58;100.00;100437.09;6278165;28;20064;-79
2024/02/06 05:59:59;;;;;;;10.80;4.93;;;;;;;9.67;100.00;100441.84;6278637;28;20045;-79
2024/02/06 06:03:00;;;;;;;11.63;5.10;;;;;;;9.55;100.00;100425.03;6277853;28;20049;-78
2024/02/06 06:06:02;;;;;;;14.50;4.65;;;;;;;9.62;100.00;100428.16;6278136;28;20342;-79
2024/02/06 06:09:07;;;;;;;15.70;6.05;;;;;;;9.63;100.00;100420.22;6277860;28;20049;-79
2024/02/06 06:12:08;;;;;;;18.08;4.80;;;;;;;9.76;100.00;100428.22;6278392;28;20053;-79
2024/02/06 06:15:10;;;;;;;19.40;4.63;;;;;;;9.79;100.00;100422.81;6277841;28;20464;-78
2024/02/06 06:18:11;;;;;;;8.60;3.03;;;;;;;9.85;100.00;100424.25;6277992;28;20426;-79
2024/02/06 06:21:12;;;;;;;15.02;4.78;;;;;;;9.81;100.00;100426.22;6278066;28;20064;-79
2024/02/06 06:24:15;;;;;;;10.75;4.28;;;;;;;9.89;100.00;100423.16;6277880;28;20045;-78
2024/02/06 06:27:17;;;;;;;5.95;3.40;;;;;;;10.03;100.00;100407.47;6277409;28;20056;-78
2024/02/06 06:30:18;;;;;;;5.50;3.33;;;;;;;10.08;100.00;100408.09;6278093;28;20041;-78
2024/02/06 06:33:19;;;;;;;13.85;3.15;;;;;;;10.10;100.00;100415.88;6277327;28;20049;-79
2024/02/06 06:36:21;;;;;;;8.48;3.58;;;;;;;10.10;100.00;100408.00;6276384;28;20049;-78
2024/02/06 06:39:23;;;;;;;9.35;3.85;;;;;;;10.09;100.00;100422.91;6268871;28;20048;-77
2024/02/06 06:42:25;;;;;;;16.08;4.20;;;;;;;10.02;100.00;100399.69;6277743;28;20606;-78
2024/02/06 06:45:26;;;;;;;15.02;3.75;;;;;;;10.11;100.00;100414.94;6277201;28;20052;-78
2024/02/06 06:48:29;;;;;;;6.72;3.30;;;;;;;10.02;100.00;100416.28;6269099;28;20391;-78
2024/02/06 06:51:30;;;;;;;9.02;3.80;;;;;;;9.99;100.00;100420.84;6277656;28;20065;-79
2024/02/06 06:54:33;;;;;;;7.70;3.75;;;;;;;9.93;100.00;100419.44;6276935;28;20136;-78
2024/02/06 06:57:37;;;;;;;8.43;3.72;;;;;;;9.86;100.00;100415.47;6268599;28;20045;-78
2024/02/06 07:00:38;;;;;;;9.32;3.20;;;;;;;9.78;100.00;100420.28;6277171;28;20057;-79
2024/02/06 07:03:40;;;;;;;10.32;3.40;;;;;;;9.62;100.00;100415.88;6277045;28;20126;-79
2024/02/06 07:06:41;;;;;;;9.23;4.82;;;;;;;9.47;100.00;100405.38;6276610;28;20613;-78
2024/02/06 07:09:44;;;;;;;16.65;4.30;;;;;;;9.44;100.00;100405.53;6276884;28;20471;-78
2024/02/06 07:12:46;;;;;;;11.32;4.55;;;;;;;9.45;100.00;100410.72;6275883;28;20060;-79
2024/02/06 07:15:47;;;;;;;8.18;4.22;;;;;;;9.38;100.00;100414.59;6276693;28;20056;-77
2024/02/06 07:18:48;;;;;;;7.20;4.22;;;;;;;9.39;100.00;100408.41;6267948;28;20041;-78
2024/02/06 07:21:56;;;;;;;14.63;4.72;;;;;;;9.39;100.00;100393.50;6275695;28;20052;-78
2024/02/06 07:24:59;;;;;;;8.27;4.20;;;;;;;9.39;100.00;100383.03;6272639;28;20080;-78
2024/02/06 07:28:04;;;;;;;9.68;3.78;;;;;;;9.43;100.00;100388.94;6266124;28;20045;-78
2024/02/06 07:31:06;;;;;;;11.27;4.38;;;;;;;9.48;100.00;100391.31;6265051;28;20080;-78
2024/02/06 07:34:07;;;;;;;9.27;3.80;;;;;;;9.51;100.00;100391.16;6271484;28;20049;-79
2024/02/06 07:37:08;;;;;;;13.07;4.90;;;;;;;9.54;100.00;100384.00;6267599;28;20071;-79
2024/02/06 07:40:12;;;;;;;9.27;5.10;;;;;;;9.51;100.00;100380.69;6266927;28;20060;-77
2024/02/06 07:43:13;;;;;;;12.65;5.25;;;;;;;9.57;100.00;100390.81;6275450;28;20059;-77
2024/02/06 07:46:14;;;;;;;8.25;4.18;;;;;;;9.59;100.00;100376.72;6263407;28;20460;-78
2024/02/06 07:49:16;;;;;;;8.38;5.10;;;;;;;9.72;100.00;100379.50;6271548;28;20045;-79
2024/02/06 07:52:17;;;;;;;11.38;4.47;;;;;;;9.77;100.00;100384.50;6269843;28;20041;-81
2024/02/06 07:55:20;;;;;;;13.35;4.20;;;;;;;9.77;100.00;100374.00;6259550;28;20056;-77
2024/02/06 07:58:21;;;;;;;8.60;4.18;;;;;;;9.82;100.00;100378.06;6260437;28;20053;-78
2024/02/06 08:01:23;;;;;;;8.90;4.70;;;;;;;9.79;100.00;100375.59;6269938;28;20066;-78
2024/02/06 08:04:24;;;;;;;9.50;3.85;;;;;;;9.70;100.00;100375.25;6262788;28;20135;-78
2024/02/06 08:07:27;;;;;;;7.90;3.75;;;;;;;9.75;100.00;100370.59;6292065;23;20048;-74
2024/02/06 08:10:30;;;;;;;9.57;4.20;;;;;;;9.72;100.00;100373.38;6275703;28;20056;-74
2024/02/06 08:13:31;;;;;;;7.50;3.97;;;;;;;9.75;100.00;100374.06;6272176;28;20044;-75
2024/02/06 08:16:33;;;;;;;7.80;4.45;;;;;;;9.61;100.00;100374.00;6275103;28;20049;-73
2024/02/06 08:19:34;;;;;;;9.77;4.60;;;;;;;9.54;100.00;100376.13;6275114;28;20041;-75
2024/02/06 08:22:36;;;;;;;7.10;3.70;;;;;;;9.72;100.00;100376.00;6275368;28;20049;-73
2024/02/06 08:25:38;;;;;;;8.93;3.97;;;;;;;9.70;100.00;100370.84;6274227;28;20125;-73
2024/02/06 08:28:40;;;;;;;13.45;4.32;;;;;;;9.61;100.00;100356.47;6274029;28;20041;-72
2024/02/06 08:31:41;;;;;;;6.47;4.10;;;;;;;9.73;100.00;100354.94;6274968;28;20041;-72
2024/02/06 08:34:43;;;;;;;6.93;3.70;;;;;;;9.70;100.00;100354.28;6273288;28;20045;-74
2024/02/06 08:37:44;;;;;;;6.18;3.97;;;;;;;9.71;100.00;100376.94;6274554;28;20044;-71
2024/02/06 08:40:48;;;;;;;6.05;3.55;;;;;;;9.80;100.00;100347.56;6275172;28;20056;-72
2024/02/06 08:43:49;;;;;;;6.43;3.58;;;;;;;9.80;100.00;100345.78;6274892;28;20154;-73
2024/02/06 08:46:51;;;;;;;7.20;3.67;;;;;;;9.83;100.00;100348.25;6274262;28;20049;-73
2024/02/06 08:49:53;;;;;;;5.40;3.35;;;;;;;9.85;100.00;100335.88;6273204;28;20056;-73
2024/02/06 08:52:54;;;;;;;8.82;3.42;;;;;;;9.93;100.00;100345.09;6266925;28;20056;-71
2024/02/06 08:55:59;;;;;;;8.95;3.50;;;;;;;9.96;100.00;100340.53;6270960;28;20056;-73
2024/02/06 08:59:01;;;;;;;7.95;4.00;;;;;;;9.98;100.00;100345.66;6274559;28;20051;-73
2024/02/06 09:02:03;;;;;;;8.55;3.28;;;;;;;9.93;100.00;100340.69;6274355;28;20461;-72
2024/02/06 09:05:05;;;;;;;5.80;3.40;;;;;;;9.89;100.00;100344.41;6274677;28;20126;-71
2024/02/06 09:08:07;;;;;;;9.73;3.42;;;;;;;10.03;100.00;100338.38;6298100;28;20051;-74
2024/02/06 09:11:09;;;;;;;5.18;3.03;;;;;;;10.22;100.00;100325.91;6299764;28;20139;-73
2024/02/06 09:14:11;;;;;;;4.75;3.20;;;;;;;10.06;100.00;100323.28;6294930;28;20052;-71
2024/02/06 09:17:12;;;;;;;8.43;3.47;;;;;;;10.04;100.00;100329.59;6294710;28;20052;-72
2024/02/06 09:20:14;;;;;;;5.95;3.60;;;;;;;10.22;100.00;100328.53;6299644;28;20044;-74
2024/02/06 09:23:15;;;;;;;6.97;3.10;;;;;;;10.24;100.00;100329.28;6299079;28;20098;-72
2024/02/06 09:26:18;;;;;;;14.80;4.00;;;;;;;10.34;100.00;100332.22;6299512;28;20049;-75
2024/02/06 09:29:19;;;;;;;14.52;3.28;;;;;;;10.39;100.00;100359.06;6298596;28;20047;-72
2024/02/06 09:32:21;;;;;;;7.15;3.85;;;;;;;10.41;100.00;100325.69;6299390;28;20334;-71
2024/02/06 09:35:22;;;;;;;12.32;3.75;;;;;;;10.38;100.00;100331.94;6299080;28;20071;-72
2024/02/06 09:38:24;;;;;;;6.70;3.15;;;;;;;10.45;100.00;100311.44;6303399;28;20059;-73
2024/02/06 09:41:26;;;;;;;9.55;4.25;;;;;;;10.48;100.00;100308.59;6303338;28;20044;-72
2024/02/06 09:44:29;;;;;;;10.63;3.42;;;;;;;10.47;100.00;100311.31;6303585;28;20452;-71
2024/02/06 09:47:30;;;;;;;13.02;3.97;;;;;;;10.60;100.00;100315.75;6303320;28;20440;-71
2024/02/06 09:50:32;;;;;;;9.35;3.65;;;;;;;10.49;100.00;100305.06;6303635;28;20048;-72
2024/02/06 09:53:36;;;;;;;9.40;4.20;;;;;;;10.57;100.00;100304.56;6303004;28;20048;-73
2024/02/06 09:56:41;;;;;;;7.07;3.63;;;;;;;10.63;100.00;100312.09;6300798;28;20052;-71
2024/02/06 09:59:43;;;;;;;4.20;3.05;;;;;;;10.63;100.00;100306.84;6302724;28;20036;-72
2024/02/06 10:02:47;;;;;;;9.20;3.88;;;;;;;10.75;100.00;100306.09;6302708;28;20045;-71
2024/02/06 10:05:50;;;;;;;13.73;3.60;;;;;;;10.72;100.00;100301.03;6302558;28;20040;-74
2024/02/06 10:08:51;;;;;;;10.02;3.10;;;;;;;10.63;100.00;100297.19;6302445;28;20099;-74
2024/02/06 10:11:55;;;;;;;8.55;3.17;;;;;;;10.68;100.00;100301.31;6302770;28;20059;-73
2024/02/06 10:14:56;;;;;;;9.15;2.78;;;;;;;10.69;100.00;100308.25;6299620;28;20044;-75
2024/02/06 10:17:58;;;;;;;11.70;3.22;;;;;;;10.76;100.00;100292.00;6302147;28;20045;-76
2024/02/06 10:20:59;;;;;;;11.80;3.05;;;;;;;10.75;100.00;100305.25;6302230;28;20044;-77
2024/02/06 10:24:02;;;;;;;9.00;3.45;;;;;;;10.79;100.00;100299.69;6301924;28;20044;-77
2024/02/06 10:27:05;;;;;;;10.55;3.65;;;;;;;10.75;100.00;100292.94;6301587;28;20387;-74
2024/02/06 10:30:07;;;;;;;10.13;3.08;;;;;;;10.88;100.00;100314.91;6302360;28;20044;-75
2024/02/06 10:33:13;;;;;;;16.02;2.80;;;;;;;10.80;100.00;100298.75;6302034;28;20047;-78
2024/02/06 10:36:17;;;;;;;11.23;2.80;;;;;;;10.85;100.00;100288.81;6297099;28;20182;-76
2024/02/06 10:39:19;;;;;;;6.80;2.58;;;;;;;10.95;100.00;100298.78;6301388;28;20040;-75
2024/02/06 10:42:21;;;;;;;10.15;3.15;;;;;;;10.84;100.00;100307.31;6302971;28;20056;-78
2024/02/06 10:45:23;;;;;;;10.05;3.38;;;;;;;10.81;100.00;100289.09;6293524;28;20045;-78
2024/02/06 10:48:24;;;;;;;9.70;3.03;;;;;;;10.85;100.00;100280.06;6276916;28;20053;-76
2024/02/06 10:51:26;;;;;;;3.65;2.50;;;;;;;10.75;100.00;100271.91;6277672;28;20052;-77
2024/02/06 10:54:27;;;;;;;7.85;3.15;;;;;;;10.79;100.00;100272.59;6277103;28;20080;-77
2024/02/06 10:57:33;;;;;;;6.18;2.90;;;;;;;10.88;100.00;100264.97;6276755;28;20068;-78
2024/02/06 11:00:36;;;;;;;11.60;2.95;;;;;;;10.76;100.00;100264.88;6277687;28;20075;-76
2024/02/06 11:03:42;;;;;;;8.20;3.03;;;;;;;10.81;100.00;100265.44;6284207;28;20049;-76
2024/02/06 11:06:51;;;;;;;7.20;2.83;;;;;;;10.95;100.00;100261.97;6284497;28;20048;-78
2024/02/06 11:09:54;;;;;;;10.00;3.40;;;;;;;10.91;100.00;100263.94;6301907;28;20041;-75
2024/02/06 11:13:02;;;;;;;8.18;2.88;;;;;;;10.88;100.00;100259.72;6293981;28;20348;-76
2024/02/06 11:16:08;;;;;;;9.87;3.07;;;;;;;10.78;100.00;100237.56;6302141;28;20441;-76
2024/02/06 11:19:15;;;;;;;8.15;3.70;;;;;;;10.93;100.00;100241.84;6301136;28;20050;-75
2024/02/06 11:22:24;;;;;;;8.80;2.72;;;;;;;11.12;100.00;100251.22;6301811;28;20126;-75
2024/02/06 11:25:27;;;;;;;8.90;3.03;;;;;;;11.09;100.00;100247.00;6301217;28;20098;-76
2024/02/06 11:28:30;;;;;;;6.00;2.78;;;;;;;10.91;100.00;100242.91;6299249;28;20052;-75
2024/02/06 11:31:33;;;;;;;6.38;3.15;;;;;;;10.93;100.00;100227.88;6295772;28;20037;-76
2024/02/06 11:34:35;;;;;;;12.18;3.03;;;;;;;11.05;100.00;100226.25;6301169;28;20052;-75
2024/02/06 11:37:36;;;;;;;7.28;3.35;;;;;;;11.10;100.00;100211.88;6299986;28;20179;-75
2024/02/06 11:40:39;;;;;;;7.22;2.67;;;;;;;11.29;100.00;100208.06;6300965;28;20056;-75
2024/02/06 11:43:42;;;;;;;8.60;2.70;;;;;;;11.21;100.00;100212.97;6300802;28;20048;-77
2024/02/06 11:46:44;;;;;;;9.57;2.95;;;;;;;11.19;100.00;100202.56;6300419;28;20052;-77
2024/02/06 11:49:46;;;;;;;4.13;2.50;;;;;;;11.13;100.00;100188.03;6300912;28;20349;-74
2024/02/06 11:52:47;;;;;;;4.97;3.10;;;;;;;11.18;100.00;100192.97;6300818;28;20048;-75
2024/02/06 11:55:48;;;;;;;8.55;4.50;;;;;;;11.22;100.00;100190.97;6300504;28;20045;-75
2024/02/06 11:58:52;;;;;;;5.55;2.97;;;;;;;11.03;100.00;100192.16;6299546;28;20433;-75
2024/02/06 12:01:53;;;;;;;6.35;2.63;;;;;;;10.88;100.00;100209.75;6295864;28;20353;-76
2024/02/06 12:05:03;;;;;;;13.25;2.95;;;;;;;10.96;100.00;100169.84;6299674;28;20566;-75
2024/02/06 12:08:05;;;;;;;14.00;3.38;;;;;;;10.90;100.00;100172.84;6297930;28;20444;-74
2024/02/06 12:11:06;;;;;;;6.45;3.05;;;;;;;10.90;100.00;100170.22;6300244;28;20356;-74
2024/02/06 12:14:11;;;;;;;11.95;2.67;;;;;;;10.95;100.00;100169.97;6300290;28;20048;-76
2024/02/06 12:17:13;;;;;;;7.47;2.65;;;;;;;10.93;100.00;100147.22;6300515;28;20045;-75
2024/02/06 12:20:17;;;;;;;14.00;3.67;;;;;;;11.04;100.00;100149.16;6299556;28;20045;-76
2024/02/06 12:23:18;;;;;;;8.60;2.75;;;;;;;11.11;100.00;100166.22;6294316;28;20044;-76
2024/02/06 12:26:21;;;;;;;6.43;2.65;;;;;;;11.21;100.00;100155.94;6299083;28;20071;-74
2024/02/06 12:29:24;;;;;;;5.65;2.38;;;;;;;11.24;100.00;100150.50;6299664;28;20080;-75
2024/02/06 12:32:25;;;;;;;9.27;2.90;;;;;;;11.21;100.00;100150.69;6300159;28;20059;-75
2024/02/06 12:35:27;;;;;;;6.82;2.55;;;;;;;11.21;100.00;100141.94;6297319;28;20051;-74
2024/02/06 12:38:28;;;;;;;11.15;2.90;;;;;;;11.28;100.00;100141.44;6299574;28;20055;-74
2024/02/06 12:41:32;;;;;;;9.45;2.50;;;;;;;11.27;100.00;100137.16;6300318;28;20048;-75
2024/02/06 12:44:36;;;;;;;6.03;2.92;;;;;;;11.18;100.00;100122.81;6299860;28;20131;-73
2024/02/06 12:47:37;;;;;;;7.25;2.30;;;;;;;11.22;100.00;100127.84;6299837;28;20049;-76
2024/02/06 12:50:39;;;;;;;7.50;1.98;;;;;;;11.40;100.00;100153.81;6299952;28;20055;-75
2024/02/06 12:53:40;;;;;;;14.98;3.28;;;;;;;11.38;100.00;100113.59;6300007;28;20052;-74
2024/02/06 12:56:42;;;;;;;9.27;2.50;;;;;;;11.41;100.00;100107.28;6298397;28;20049;-75
2024/02/06 12:59:49;;;;;;;5.25;2.22;;;;;;;11.33;100.00;100097.28;6299510;28;20047;-74
2024/02/06 13:02:59;;;;;;;13.15;3.13;;;;;;;11.40;100.00;100087.19;6300104;28;20084;-72
2024/02/06 13:06:00;;;;;;;9.35;3.10;;;;;;;11.37;100.00;100093.50;6299636;28;20095;-74
2024/02/06 13:09:02;;;;;;;4.88;2.10;;;;;;;11.38;100.00;100089.06;6299528;28;20052;-74
2024/02/06 13:12:05;;;;;;;3.67;1.55;;;;;;;11.54;100.00;100078.38;6293441;28;20433;-75
2024/02/06 13:15:10;;;;;;;3.97;1.95;;;;;;;11.56;100.00;100079.09;6304402;28;20127;-75
2024/02/06 13:18:16;;;;;;;9.38;2.80;;;;;;;11.48;100.00;100053.28;6298372;28;20044;-74
2024/02/06 13:21:17;;;;;;;6.72;1.98;;;;;;;11.41;100.00;100075.72;6301344;28;20048;-74
2024/02/06 13:24:19;;;;;;;4.10;2.60;;;;;;;11.48;100.00;100062.97;6301666;28;20052;-75
2024/02/06 13:27:21;;;;;;;4.90;1.77;;;;;;;11.57;100.00;100046.56;6303120;28;20065;-75
2024/02/06 13:30:23;;;;;;;7.65;1.45;;;;;;;11.67;100.00;100048.47;6303276;28;20124;-74
2024/02/06 13:33:25;;;;;;;7.25;2.25;;;;;;;11.60;100.00;100047.19;6303612;28;20053;-75
2024/02/06 13:36:26;;;;;;;4.05;1.65;;;;;;;11.78;100.00;100031.09;6279493;28;20041;-74
2024/02/06 13:39:27;;;;;;;9.90;2.05;;;;;;;11.78;100.00;100023.19;6303744;28;20045;-75
2024/02/06 13:42:29;;;;;;;7.45;2.35;;;;;;;11.88;100.00;100032.97;6303743;28;20040;-75
2024/02/06 13:45:32;;;;;;;7.05;1.90;;;;;;;11.77;100.00;100026.78;6302933;28;20044;-75
2024/02/06 13:48:34;;;;;;;8.48;1.85;;;;;;;11.82;100.00;100030.78;6300409;28;20044;-75
2024/02/06 13:51:35;;;;;;;6.72;1.75;;;;;;;11.50;100.00;100011.09;6302765;28;20041;-74
2024/02/06 13:54:37;;;;;;;5.20;1.70;;;;;;;11.59;100.00;100006.03;6302998;28;20044;-74
2024/02/06 13:57:38;;;;;;;8.52;2.40;;;;;;;11.58;100.00;100016.66;6302232;28;20115;-72
2024/02/06 14:00:42;;;;;;;8.18;2.33;;;;;;;11.73;100.00;100022.66;6302997;28;20037;-75